createdAt,value
2023-05-04T00:00:32.965Z,75.24
2023-05-04T00:03:05.788Z,74.15
2023-05-04T00:05:38.724Z,74.01
2023-05-04T00:08:13.034Z,74.69
2023-05-04T00:10:46.146Z,74.41
2023-05-04T00:13:18.585Z,73.57
2023-05-04T00:15:51.460Z,73.83
2023-05-04T00:18:24.327Z,73.75
2023-05-04T00:20:56.850Z,74.20
2023-05-04T00:23:30.984Z,74.20
2023-05-04T00:26:03.801Z,74.03
2023-05-04T00:28:36.638Z,74.43
2023-05-04T00:31:09.261Z,74.94
2023-05-04T00:33:42.115Z,74.87
2023-05-04T00:36:14.946Z,74.02
2023-05-04T00:38:50.619Z,73.00
2023-05-04T00:41:23.844Z,72.82
2023-05-04T00:43:56.615Z,72.72
2023-05-04T00:46:29.678Z,72.53
2023-05-04T00:49:02.536Z,72.35
2023-05-04T00:51:37.238Z,73.91
2023-05-04T00:54:11.903Z,73.83
2023-05-04T00:56:46.234Z,73.01
2023-05-04T00:59:19.963Z,73.43
2023-05-04T01:01:52.471Z,73.86
2023-05-04T01:04:25.977Z,73.07
2023-05-04T01:07:03.510Z,74.01
2023-05-04T01:09:47.794Z,73.35
2023-05-04T01:12:27.707Z,73.19
2023-05-04T01:15:01.577Z,73.18
2023-05-04T01:17:37.543Z,73.53
2023-05-04T01:20:10.856Z,73.03
2023-05-04T01:22:45.120Z,73.68
2023-05-04T01:25:18.797Z,73.85
2023-05-04T01:27:59.464Z,73.72
2023-05-04T01:30:38.145Z,73.20
2023-05-04T01:33:11.250Z,74.03
2023-05-04T01:35:45.191Z,74.64
2023-05-04T01:38:19.165Z,74.04
2023-05-04T01:40:52.223Z,73.22
2023-05-04T01:43:24.824Z,73.33
2023-05-04T01:45:57.453Z,72.96
2023-05-04T01:48:30.151Z,73.47
2023-05-04T01:51:03.244Z,73.28
2023-05-04T01:53:37.414Z,73.21
2023-05-04T01:56:10.609Z,73.10
2023-05-04T01:58:43.432Z,73.77
2023-05-04T02:01:16.436Z,73.48
2023-05-04T02:03:49.396Z,72.98
2023-05-04T02:06:22.822Z,74.03
2023-05-04T02:08:56.662Z,73.93
2023-05-04T02:11:29.929Z,74.28
2023-05-04T02:14:02.342Z,73.87
2023-05-04T02:16:35.201Z,73.35
2023-05-04T02:19:07.651Z,73.46
2023-05-04T02:21:42.452Z,74.04
2023-05-04T02:24:16.685Z,74.02
2023-05-04T02:26:49.587Z,73.38
2023-05-04T02:29:22.274Z,72.96
2023-05-04T02:31:55.961Z,73.30
2023-05-04T02:34:29.465Z,72.63
2023-05-04T02:37:03.279Z,73.03
2023-05-04T02:39:37.956Z,73.60
2023-05-04T02:42:11.189Z,72.89
2023-05-04T02:44:43.685Z,72.99
2023-05-04T02:47:17.274Z,73.66
2023-05-04T02:49:49.807Z,73.28
2023-05-04T02:52:23.470Z,73.92
2023-05-04T02:54:57.293Z,73.59
2023-05-04T02:57:30.396Z,73.91
2023-05-04T03:00:04.852Z,73.71
2023-05-04T03:02:39.695Z,74.07
2023-05-04T03:05:12.248Z,74.26
2023-05-04T03:07:45.398Z,74.14
2023-05-04T03:10:19.315Z,73.77
2023-05-04T03:12:53.356Z,74.08
2023-05-04T03:15:25.984Z,74.17
2023-05-04T03:17:59.059Z,73.16
2023-05-04T03:20:32.011Z,73.50
2023-05-04T03:23:07.249Z,74.00
2023-05-04T03:25:42.175Z,74.32
2023-05-04T03:28:15.383Z,73.65
2023-05-04T03:30:48.007Z,74.12
2023-05-04T03:33:21.049Z,74.21
2023-05-04T03:35:53.936Z,74.64
2023-05-04T03:38:27.317Z,74.92
2023-05-04T03:41:02.211Z,74.17
2023-05-04T03:43:35.184Z,75.30
2023-05-04T03:46:07.902Z,74.78
2023-05-04T03:48:41.304Z,74.66
2023-05-04T03:51:17.334Z,75.14
2023-05-04T03:53:50.581Z,75.53
2023-05-04T03:56:26.078Z,75.42
2023-05-04T03:58:59.191Z,74.42
2023-05-04T04:01:35.840Z,75.04
2023-05-04T04:04:08.982Z,75.57
2023-05-04T04:06:43.503Z,75.19
2023-05-04T04:09:19.036Z,75.41
2023-05-04T04:11:52.937Z,74.34
2023-05-04T04:14:26.221Z,74.27
2023-05-04T04:16:59.058Z,73.38
2023-05-04T04:19:31.470Z,73.76
2023-05-04T04:22:04.458Z,73.63
2023-05-04T04:24:36.997Z,73.68
2023-05-04T04:27:11.459Z,73.85
2023-05-04T04:29:44.525Z,73.21
2023-05-04T04:32:17.378Z,72.35
2023-05-04T04:34:50.154Z,73.02
2023-05-04T04:37:23.033Z,72.29
2023-05-04T04:39:55.995Z,72.51
2023-05-04T04:42:30.264Z,71.99
2023-05-04T04:45:05.952Z,72.70
2023-05-04T04:47:40.294Z,72.24
2023-05-04T04:50:13.750Z,71.59
2023-05-04T04:52:46.484Z,70.42
2023-05-04T04:55:20.675Z,69.29
2023-05-04T04:57:55.714Z,67.46
2023-05-04T05:00:29.137Z,66.30
2023-05-04T05:03:02.079Z,65.04
2023-05-04T05:05:35.385Z,63.06
2023-05-04T05:08:07.853Z,61.02
2023-05-04T05:10:42.546Z,60.45
2023-05-04T05:13:17.914Z,59.68
2023-05-04T05:15:50.882Z,58.85
2023-05-04T05:18:24.095Z,58.85
2023-05-04T05:20:58.278Z,57.83
2023-05-04T05:23:30.904Z,55.81
2023-05-04T05:26:04.069Z,55.08
2023-05-04T05:28:38.143Z,54.97
2023-05-04T05:31:11.273Z,55.36
2023-05-04T05:33:44.015Z,54.50
2023-05-04T05:36:16.929Z,52.80
2023-05-04T05:38:50.430Z,53.01
2023-05-04T05:41:23.355Z,53.12
2023-05-04T05:43:58.261Z,52.35
2023-05-04T05:46:31.189Z,53.14
2023-05-04T05:49:07.789Z,51.44
2023-05-04T05:51:41.908Z,51.53
2023-05-04T05:54:15.372Z,51.63
2023-05-04T05:56:48.084Z,52.68
2023-05-04T05:59:22.354Z,52.02
2023-05-04T06:01:55.363Z,51.53
2023-05-04T06:04:28.599Z,50.60
2023-05-04T06:07:01.477Z,50.27
2023-05-04T06:09:34.653Z,49.77
2023-05-04T06:12:12.442Z,49.53
2023-05-04T06:14:48.377Z,48.52
2023-05-04T06:17:21.876Z,48.87
2023-05-04T06:19:54.805Z,49.61
2023-05-04T06:22:27.654Z,49.83
2023-05-04T06:25:05.133Z,46.82
2023-05-04T06:27:39.856Z,46.13
2023-05-04T06:30:16.056Z,45.46
2023-05-04T06:32:48.975Z,44.58
2023-05-04T06:35:21.827Z,44.03
2023-05-04T06:37:54.505Z,45.23
2023-05-04T06:40:27.796Z,44.82
2023-05-04T06:43:00.435Z,44.89
2023-05-04T06:45:36.207Z,43.79
2023-05-04T06:48:09.338Z,43.12
2023-05-04T06:50:42.876Z,42.73
2023-05-04T06:53:15.406Z,42.84
2023-05-04T06:55:48.439Z,41.86
2023-05-04T06:58:21.954Z,42.38
2023-05-04T07:00:56.548Z,42.61
2023-05-04T07:03:29.767Z,41.96
2023-05-04T07:06:02.562Z,41.70
2023-05-04T07:08:35.502Z,42.08
2023-05-04T07:11:10.808Z,41.56
2023-05-04T07:13:43.538Z,41.74
2023-05-04T07:16:17.832Z,41.76
2023-05-04T07:18:50.578Z,40.88
2023-05-04T07:21:28.277Z,41.28
2023-05-04T07:24:02.115Z,40.90
2023-05-04T07:26:34.896Z,40.22
2023-05-04T07:29:07.444Z,40.76
2023-05-04T07:31:41.769Z,40.98
2023-05-04T07:34:14.728Z,40.42
2023-05-04T07:36:47.331Z,39.41
2023-05-04T07:39:20.514Z,40.78
2023-05-04T07:41:52.911Z,40.54
2023-05-04T07:44:25.953Z,42.31
2023-05-04T07:47:00.149Z,42.36
2023-05-04T07:49:33.532Z,42.45
2023-05-04T07:52:06.467Z,41.34
2023-05-04T07:54:39.398Z,41.77
2023-05-04T07:57:12.188Z,42.21
2023-05-04T07:59:45.483Z,40.81
2023-05-04T08:02:19.776Z,40.09
2023-05-04T08:04:52.773Z,39.78
2023-05-04T08:07:25.618Z,40.64
2023-05-04T08:09:58.747Z,39.65
2023-05-04T08:12:31.616Z,39.87
2023-05-04T08:15:06.026Z,40.04
2023-05-04T08:17:40.980Z,40.21
2023-05-04T08:20:14.232Z,40.95
2023-05-04T08:22:47.532Z,40.52
2023-05-04T08:25:20.655Z,39.69
2023-05-04T08:27:53.671Z,40.06
2023-05-04T08:30:27.560Z,39.23
2023-05-04T08:33:01.450Z,39.02
2023-05-04T08:35:34.370Z,38.42
2023-05-04T08:38:07.972Z,38.67
2023-05-04T08:40:42.447Z,38.62
2023-05-04T08:43:14.919Z,38.94
2023-05-04T08:45:48.279Z,39.20
2023-05-04T08:48:23.067Z,38.92
2023-05-04T08:50:57.771Z,39.06
2023-05-04T08:53:32.229Z,38.99
2023-05-04T08:56:09.510Z,39.80
2023-05-04T08:58:49.014Z,39.09
2023-05-04T09:01:22.372Z,39.49
2023-05-04T09:03:58.481Z,39.30
2023-05-04T09:06:32.167Z,38.98
2023-05-04T09:09:05.435Z,37.46
2023-05-04T09:11:39.361Z,37.83
2023-05-04T09:14:12.483Z,37.69
2023-05-04T09:16:45.357Z,38.90
2023-05-04T09:19:21.000Z,38.10
2023-05-04T09:21:54.527Z,38.29
2023-05-04T09:24:27.727Z,37.09
2023-05-04T09:27:10.857Z,37.60
2023-05-04T09:29:44.363Z,37.39
2023-05-04T09:32:17.453Z,37.42
2023-05-04T09:34:53.856Z,37.98
2023-05-04T09:37:27.354Z,37.21
2023-05-04T09:39:59.973Z,36.76
2023-05-04T09:42:33.254Z,36.92
2023-05-04T09:45:10.025Z,37.33
2023-05-04T09:47:44.658Z,36.28
2023-05-04T09:50:22.450Z,36.74
2023-05-04T09:52:56.825Z,36.88
2023-05-04T09:55:29.937Z,36.99
2023-05-04T09:58:03.347Z,36.86
2023-05-04T10:00:36.683Z,36.74
2023-05-04T10:03:09.791Z,36.79
2023-05-04T10:05:44.305Z,36.28
2023-05-04T10:08:17.583Z,36.79
2023-05-04T10:10:52.079Z,36.50
2023-05-04T10:13:25.604Z,36.46
2023-05-04T10:16:13.021Z,37.35
2023-05-04T10:19:01.960Z,37.43
2023-05-04T10:21:49.346Z,36.71
2023-05-04T10:24:41.902Z,37.39
2023-05-04T10:27:17.347Z,37.56
2023-05-04T10:29:51.714Z,38.25
2023-05-04T10:32:24.437Z,37.70
2023-05-04T10:35:07.023Z,37.30
2023-05-04T10:37:51.406Z,37.41
2023-05-04T10:40:37.478Z,36.91
2023-05-04T10:43:21.149Z,36.86
2023-05-04T10:45:54.145Z,36.67
2023-05-04T10:48:35.445Z,36.90
2023-05-04T10:51:18.786Z,37.67
2023-05-04T10:53:53.941Z,37.12
2023-05-04T10:56:28.924Z,37.36
2023-05-04T10:59:09.007Z,37.75
2023-05-04T11:01:45.250Z,36.55
2023-05-04T11:04:22.550Z,37.04
2023-05-04T11:07:00.815Z,36.27
2023-05-04T11:09:44.991Z,36.36
2023-05-04T11:12:20.757Z,36.68
2023-05-04T11:15:05.420Z,36.67
2023-05-04T11:17:47.834Z,36.96
2023-05-04T11:20:23.208Z,36.17
2023-05-04T11:22:58.905Z,36.60
2023-05-04T11:25:36.316Z,36.21
2023-05-04T11:28:09.671Z,37.19
2023-05-04T11:30:50.264Z,36.26
2023-05-04T11:33:23.400Z,36.66
2023-05-04T11:36:01.979Z,35.98
2023-05-04T11:38:35.188Z,36.38
2023-05-04T11:41:09.804Z,35.92
2023-05-04T11:43:45.521Z,35.16
2023-05-04T11:46:19.102Z,34.56
2023-05-04T11:48:52.483Z,34.79
2023-05-04T11:51:25.742Z,34.93
2023-05-04T11:54:01.193Z,35.16
2023-05-04T11:56:44.745Z,35.87
2023-05-04T11:59:17.304Z,34.92
2023-05-04T12:01:50.420Z,34.50
2023-05-04T12:04:23.122Z,34.09
2023-05-04T12:06:56.556Z,33.90
2023-05-04T12:09:29.041Z,33.79
2023-05-04T12:12:03.186Z,33.55
2023-05-04T12:14:36.348Z,34.44
2023-05-04T12:17:09.807Z,34.67
2023-05-04T12:19:50.799Z,34.12
2023-05-04T12:22:28.667Z,33.66
2023-05-04T12:25:02.511Z,34.03
2023-05-04T12:27:42.132Z,33.84
2023-05-04T12:30:15.668Z,33.62
2023-05-04T12:32:49.051Z,33.88
2023-05-04T12:35:21.875Z,33.56
2023-05-04T12:37:55.115Z,33.87
2023-05-04T12:40:29.065Z,34.19
2023-05-04T12:43:05.568Z,34.03
2023-05-04T12:45:40.140Z,33.94
2023-05-04T12:48:13.436Z,34.15
2023-05-04T12:50:49.110Z,34.12
2023-05-04T12:53:26.132Z,34.10
2023-05-04T12:55:59.117Z,33.72
2023-05-04T12:58:33.554Z,33.34
2023-05-04T13:01:06.839Z,34.26
2023-05-04T13:03:39.957Z,34.52
2023-05-04T13:06:12.679Z,34.21
2023-05-04T13:08:47.296Z,33.75
2023-05-04T13:11:20.291Z,33.73
2023-05-04T13:13:54.819Z,33.66
2023-05-04T13:16:28.191Z,34.79
2023-05-04T13:19:01.729Z,33.41
2023-05-04T13:21:34.312Z,33.47
2023-05-04T13:24:11.815Z,32.88
2023-05-04T13:26:45.160Z,33.12
2023-05-04T13:29:19.072Z,32.32
2023-05-04T13:31:51.863Z,32.56
2023-05-04T13:34:25.120Z,32.82
2023-05-04T13:36:57.662Z,32.43
2023-05-04T13:39:30.832Z,32.57
2023-05-04T13:42:04.072Z,33.13
2023-05-04T13:44:38.568Z,32.48
2023-05-04T13:47:12.777Z,32.87
2023-05-04T13:49:48.097Z,32.58
2023-05-04T13:52:21.082Z,32.56
2023-05-04T13:54:54.129Z,32.85
2023-05-04T13:57:47.660Z,33.76
2023-05-04T14:00:22.893Z,33.32
2023-05-04T14:02:56.182Z,33.07
2023-05-04T14:05:29.280Z,32.95
2023-05-04T14:08:03.206Z,32.84
2023-05-04T14:10:37.724Z,33.80
2023-05-04T14:13:10.376Z,33.74
2023-05-04T14:15:49.715Z,33.89
2023-05-04T14:18:22.492Z,33.78
2023-05-04T14:20:55.872Z,34.46
2023-05-04T14:23:31.384Z,34.47
2023-05-04T14:26:04.824Z,33.92
2023-05-04T14:28:37.474Z,34.69
2023-05-04T14:31:11.967Z,34.86
2023-05-04T14:33:44.457Z,35.01
2023-05-04T14:36:18.951Z,34.64
2023-05-04T14:38:51.684Z,35.41
2023-05-04T14:41:25.571Z,35.65
2023-05-04T14:43:58.223Z,35.53
2023-05-04T14:46:33.321Z,35.80
2023-05-04T14:49:07.607Z,35.96
2023-05-04T14:51:40.981Z,36.41
2023-05-04T14:54:14.124Z,36.41
2023-05-04T14:56:47.788Z,36.77
2023-05-04T14:59:21.047Z,35.96
2023-05-04T15:01:57.904Z,36.25
2023-05-04T15:04:31.492Z,35.87
2023-05-04T15:07:05.480Z,36.44
2023-05-04T15:09:39.892Z,36.33
2023-05-04T15:12:12.664Z,36.33
2023-05-04T15:14:46.351Z,36.36
2023-05-04T15:17:25.274Z,36.23
2023-05-04T15:19:58.194Z,36.75
2023-05-04T15:22:31.520Z,37.58
2023-05-04T15:25:06.122Z,36.72
2023-05-04T15:27:44.143Z,37.38
2023-05-04T15:30:18.519Z,37.70
2023-05-04T15:32:54.081Z,37.06
2023-05-04T15:35:30.650Z,37.10
2023-05-04T15:38:04.138Z,37.00
2023-05-04T15:40:38.046Z,37.05
2023-05-04T15:43:11.570Z,37.80
2023-05-04T15:45:44.794Z,37.22
2023-05-04T15:48:19.313Z,37.28
2023-05-04T15:50:52.115Z,37.34
2023-05-04T15:53:25.443Z,37.19
2023-05-04T15:55:57.870Z,36.51
2023-05-04T15:58:31.093Z,36.76
2023-05-04T16:01:04.365Z,36.93
2023-05-04T16:03:39.453Z,37.27
2023-05-04T16:06:12.892Z,36.86
2023-05-04T16:08:45.811Z,36.92
2023-05-04T16:11:18.722Z,37.02
2023-05-04T16:13:51.856Z,36.43
2023-05-04T16:16:28.129Z,36.80
2023-05-04T16:19:04.454Z,37.27
2023-05-04T16:21:38.250Z,37.93
2023-05-04T16:24:13.071Z,38.17
2023-05-04T16:26:54.250Z,38.42
2023-05-04T16:29:27.143Z,38.00
2023-05-04T16:32:00.596Z,37.88
2023-05-04T16:34:34.583Z,37.89
2023-05-04T16:37:10.754Z,38.00
2023-05-04T16:39:43.514Z,38.68
2023-05-04T16:42:16.351Z,38.15
2023-05-04T16:44:49.593Z,38.86
2023-05-04T16:47:22.046Z,39.24
2023-05-04T16:49:56.300Z,40.20
2023-05-04T16:52:29.217Z,40.89
2023-05-04T16:55:02.547Z,40.76
2023-05-04T16:57:37.119Z,40.25
2023-05-04T17:00:12.379Z,40.39
2023-05-04T17:02:45.616Z,41.26
2023-05-04T17:05:20.982Z,41.79
2023-05-04T17:07:54.448Z,41.86
2023-05-04T17:10:27.855Z,42.35
2023-05-04T17:13:02.262Z,42.86
2023-05-04T17:15:36.019Z,43.82
2023-05-04T17:18:08.873Z,43.59
2023-05-04T17:20:43.301Z,43.91
2023-05-04T17:23:16.362Z,44.80
2023-05-04T17:25:50.351Z,44.34
2023-05-04T17:28:30.981Z,44.37
2023-05-04T17:31:03.891Z,44.75
2023-05-04T17:33:36.570Z,45.69
2023-05-04T17:36:12.420Z,45.79
2023-05-04T17:38:45.546Z,45.61
2023-05-04T17:41:22.114Z,45.69
2023-05-04T17:43:56.132Z,45.59
2023-05-04T17:46:33.793Z,45.60
2023-05-04T17:49:08.888Z,46.25
2023-05-04T17:51:43.912Z,46.12
2023-05-04T17:54:16.931Z,46.75
2023-05-04T17:56:51.202Z,46.97
2023-05-04T17:59:23.675Z,47.02
2023-05-04T18:01:56.666Z,47.29
2023-05-04T18:04:32.366Z,47.71
2023-05-04T18:07:07.022Z,48.05
2023-05-04T18:09:39.599Z,47.99
2023-05-04T18:12:14.287Z,47.93
2023-05-04T18:14:51.169Z,48.01
2023-05-04T18:17:26.704Z,48.64
2023-05-04T18:19:59.246Z,48.93
2023-05-04T18:22:33.764Z,49.31
2023-05-04T18:25:07.645Z,49.31
2023-05-04T18:27:41.623Z,49.49
2023-05-04T18:30:17.785Z,49.77
2023-05-04T18:32:50.241Z,49.09
2023-05-04T18:35:23.655Z,49.31
2023-05-04T18:37:57.903Z,49.52
2023-05-04T18:40:32.558Z,49.09
2023-05-04T18:43:05.197Z,49.45
2023-05-04T18:45:38.201Z,49.76
2023-05-04T18:48:10.964Z,50.05
2023-05-04T18:50:52.531Z,50.02
2023-05-04T18:53:26.841Z,50.32
2023-05-04T18:56:01.587Z,50.17
2023-05-04T18:58:34.856Z,50.86
2023-05-04T19:01:07.966Z,51.21
2023-05-04T19:03:40.679Z,50.87
2023-05-04T19:06:13.363Z,51.32
2023-05-04T19:08:47.562Z,51.78
2023-05-04T19:11:20.464Z,51.36
2023-05-04T19:13:53.461Z,51.91
2023-05-04T19:16:29.048Z,51.71
2023-05-04T19:19:02.674Z,51.66
2023-05-04T19:21:36.244Z,52.24
2023-05-04T19:24:10.753Z,52.49
2023-05-04T19:26:43.543Z,52.69
2023-05-04T19:29:16.540Z,53.31
2023-05-04T19:31:49.978Z,53.02
2023-05-04T19:34:22.813Z,53.03
2023-05-04T19:36:55.737Z,53.12
2023-05-04T19:39:29.997Z,53.71
2023-05-04T19:42:02.372Z,54.12
2023-05-04T19:44:35.230Z,54.20
2023-05-04T19:47:09.170Z,53.69
2023-05-04T19:49:42.021Z,53.84
2023-05-04T19:52:15.226Z,54.35
2023-05-04T19:54:53.897Z,54.68
2023-05-04T19:57:26.908Z,54.75
2023-05-04T20:00:00.307Z,54.59
2023-05-04T20:02:34.249Z,54.95
2023-05-04T20:05:09.038Z,55.13
2023-05-04T20:07:42.116Z,55.07
2023-05-04T20:10:16.712Z,55.49
2023-05-04T20:12:49.645Z,55.44
2023-05-04T20:15:23.656Z,55.64
2023-05-04T20:17:56.555Z,55.82
2023-05-04T20:20:29.988Z,55.63
2023-05-04T20:23:02.631Z,56.06
2023-05-04T20:25:37.223Z,56.01
2023-05-04T20:28:09.738Z,56.51
2023-05-04T20:30:43.068Z,56.56
2023-05-04T20:33:15.951Z,56.59
2023-05-04T20:35:48.965Z,56.48
2023-05-04T20:38:21.837Z,56.80
2023-05-04T20:40:56.248Z,56.98
2023-05-04T20:43:29.027Z,57.40
2023-05-04T20:46:02.173Z,57.52
2023-05-04T20:48:35.613Z,57.63
2023-05-04T20:51:14.383Z,57.99
2023-05-04T20:53:48.034Z,58.00
2023-05-04T20:56:23.098Z,58.17
2023-05-04T20:58:55.967Z,57.98
2023-05-04T21:01:30.215Z,58.32
2023-05-04T21:04:02.707Z,57.96
2023-05-04T21:06:36.150Z,58.60
2023-05-04T21:09:09.061Z,58.70
2023-05-04T21:11:43.869Z,58.70
2023-05-04T21:14:16.598Z,59.17
2023-05-04T21:16:49.542Z,59.06
2023-05-04T21:19:22.415Z,59.06
2023-05-04T21:21:55.392Z,59.14
2023-05-04T21:24:27.926Z,59.52
2023-05-04T21:27:02.718Z,59.39
2023-05-04T21:29:35.526Z,59.72
2023-05-04T21:32:08.495Z,59.94
2023-05-04T21:34:41.200Z,59.90
2023-05-04T21:37:14.236Z,59.90
2023-05-04T21:39:46.742Z,59.75
2023-05-04T21:42:21.278Z,60.18
2023-05-04T21:44:54.550Z,60.56
2023-05-04T21:47:27.869Z,60.61
2023-05-04T21:50:01.076Z,60.82
2023-05-04T21:52:36.799Z,60.79
2023-05-04T21:55:09.700Z,60.86
2023-05-04T21:57:44.377Z,61.03
2023-05-04T22:00:18.638Z,61.16
2023-05-04T22:02:54.134Z,61.39
2023-05-04T22:05:26.866Z,61.39
2023-05-04T22:08:01.548Z,62.02
2023-05-04T22:10:34.128Z,62.13
2023-05-04T22:13:08.795Z,62.11
2023-05-04T22:15:49.741Z,62.15
2023-05-04T22:18:23.894Z,62.54
2023-05-04T22:20:56.881Z,62.77
2023-05-04T22:23:29.606Z,63.01
2023-05-04T22:26:02.733Z,63.05
2023-05-04T22:28:36.544Z,63.34
2023-05-04T22:31:09.771Z,63.11
2023-05-04T22:33:42.573Z,63.38
2023-05-04T22:36:15.576Z,63.92
2023-05-04T22:38:50.570Z,64.02
2023-05-04T22:41:23.365Z,64.25
2023-05-04T22:43:57.657Z,63.95
2023-05-04T22:46:30.183Z,64.29
2023-05-04T22:49:03.331Z,64.32
2023-05-04T22:51:35.916Z,64.74
2023-05-04T22:54:08.786Z,64.98
2023-05-04T22:56:41.144Z,64.76
2023-05-04T22:59:15.584Z,65.40
2023-05-04T23:01:48.458Z,65.14
2023-05-04T23:04:21.413Z,65.30
2023-05-04T23:06:54.215Z,65.36
2023-05-04T23:09:27.285Z,65.67
2023-05-04T23:11:59.860Z,65.78
2023-05-04T23:14:33.980Z,65.96
2023-05-04T23:17:06.717Z,66.00
2023-05-04T23:19:39.709Z,66.21
2023-05-04T23:22:12.014Z,65.94
2023-05-04T23:24:44.813Z,66.16
2023-05-04T23:27:17.926Z,66.52
2023-05-04T23:29:52.277Z,66.57
2023-05-04T23:32:24.676Z,66.25
2023-05-04T23:34:57.810Z,66.40
2023-05-04T23:37:32.195Z,66.04
2023-05-04T23:40:05.885Z,66.58
2023-05-04T23:42:39.158Z,65.90
2023-05-04T23:45:13.644Z,66.20
2023-05-04T23:47:46.182Z,66.65
2023-05-04T23:50:19.040Z,67.16
2023-05-04T23:52:51.964Z,66.58
2023-05-04T23:55:24.437Z,66.63
2023-05-04T23:57:57.983Z,67.16
